• Join FlightAware (Why Join?)
  • Login
  • US Flag 
09:48AM EST


 

Airport Tracker/Info


-or-


 

Live Flight TrackerFlight Track Log ✈ ASH3726 ✈ 17-Aug-2013 ✈ KORD - KDTW

Flight Track Log - Related Links

Times and Time Zones

All times are in EDT time to prevent confusion due to time zone crossing. See the ASH3726 flight status page for this flight to view local times or setup timezone preferences in your user account.

Time Position Orientation Groundspeed Altitude Reporting Facility
EDT Latitude Longitude Course Direction KTS MPH feet Rate Location/Type
05:42PM 42.0000 -87.8833 14° North 142 163 1,200  Level Chicago TRACON
05:43PM 42.0500 -87.8667 14° North 202 232 2,600 1,560 Climbing Chicago TRACON
05:45PM 42.2701 -87.8033 10° North  Level FlightAware Approximate
05:45PM 42.1461 -87.8400 12° North 257 296 5,200  Level Chicago Center
05:46PM 42.3718 -87.7725 20° North  Level FlightAware Approximate
05:46PM 42.2214 -87.8189 12° North 276 318 8,000  Level Chicago Center
05:47PM 42.4727 -87.7388 North  Level FlightAware Approximate
05:47PM 42.3017 -87.8339 352° North 292 336 10,300  Level Chicago Center
05:48PM 42.5651 -87.7172 14° North  Level FlightAware Approximate
05:48PM 42.3958 -87.8300 North 313 360 12,400  Level Chicago Center
05:49PM 42.4897 -87.8000 13° North 342 394 14,600 2,040 Climbing Chicago Center
05:50PM 42.5847 -87.7686 14° North 350 403 16,700 1,800 Climbing Chicago Center
05:51PM 42.6839 -87.7375 13° North 362 417 18,400 1,800 Climbing Chicago Center
05:52PM 42.7619 -87.6261 46° Northeast 368 423 20,500 1,800 Climbing Chicago Center
05:53PM 42.7969 -87.4950 70° East 370 426 22,200 1,200 Climbing Chicago Center
05:54PM 42.8289 -87.3722 70° East 382 440 23,000 360 Climbing Chicago Center
05:55PM 42.8753 -87.1942 70° East 413 475 23,000  Level Chicago Center
05:56PM 42.9150 -87.0400 71° East 428 493 23,000  Level Chicago Center
05:57PM 42.9475 -86.8853 74° East 427 491 23,000  Level Chicago Center
05:58PM 42.9764 -86.7292 76° East 426 490 23,000  Level Chicago Center
05:59PM 43.0069 -86.5700 75° East 432 497 23,000  Level Chicago Center
06:00PM 43.0356 -86.4133 76° East 427 491 23,000  Level Chicago Center
06:01PM 43.0708 -86.2233 76° East 428 493 23,000  Level Chicago Center
06:02PM 43.1008 -86.0606 76° East 432 497 23,000  Level Chicago Center
06:03PM 43.1306 -85.8922 76° East 435 501 23,000  Level Chicago Center
06:04PM 43.1594 -85.7311 76° East 435 501 23,000  Level Chicago Center
06:05PM 43.1869 -85.5717 77° East 431 496 23,000  Level Chicago Center
06:06PM 43.2153 -85.4131 76° East 430 495 23,000  Level Chicago Center
06:07PM 43.2425 -85.2531 77° East 431 496 23,000  Level Chicago Center
06:08PM 43.2239 -85.0917 99° East 427 491 23,000  Level Chicago Center
06:09PM 43.1981 -84.9511 104° East 391 450 23,000 -720 Level Chicago Center
06:11PM 43.1706 -84.8008 104° East 341 392 21,600 -1,200 Descending Chicago Center
06:12PM 43.1464 -84.6758 105° East 339 390 20,600 -1,080 Descending Chicago Center
06:13PM 43.1231 -84.5497 104° East 342 394 19,500 -1,080 Descending Chicago Center
06:14PM 43.0992 -84.4231 104° East 343 395 18,400 -1,020 Descending Chicago Center
06:15PM 43.0633 -84.2947 111° Southeast 331 381 17,400 -1,020 Descending Cleveland Center
06:16PM 43.0186 -84.1897 120° Southeast 320 368 16,400 -1,020 Descending Cleveland Center
06:17PM 42.9781 -84.0881 119° Southeast 320 368 15,400 -1,020 Descending Cleveland Center
06:18PM 42.9353 -83.9836 119° Southeast 314 361 14,400 -1,020 Descending Cleveland Center
06:19PM 42.8925 -83.8792 119° Southeast 314 361 13,400 -1,020 Descending Cleveland Center
06:20PM 42.8536 -83.7808 118° Southeast 304 350 12,400 -960 Descending Cleveland Center
06:20PM 42.8297 -83.7372 127° Southeast 285 328 12,000 -720 Descending Cleveland Center
06:21PM 42.7969 -83.7156 154° Southeast 270 311 11,700 -900 Descending Cleveland Center
06:21PM 42.7642 -83.6942 154° Southeast 249 287 11,100 -1,200 Descending Cleveland Center
06:22PM 42.7497 -83.6058 103° East 243 280 9,900 -1,080 Descending Cleveland Center
06:23PM 42.7586 -83.5100 83° East 249 287 9,000 -480 Descending Cleveland Center
06:24PM 42.7050 -83.4850 161° South 250 288 9,000  Level Cleveland Center
06:25PM 42.6475 -83.5303 210° Southwest 230 265 9,000 -120 Level Cleveland Center
06:26PM 42.5964 -83.5758 213° Southwest 217 250 8,800 -600 Descending Cleveland Center
06:27PM 42.5422 -83.5733 178° South 215 247 7,800 -1,140 Descending Cleveland Center
06:28PM 42.5297 -83.4967 102° East 208 239 6,500 -840 Descending Cleveland Center
06:29PM 42.5147 -83.4228 105° East 202 232 6,000 -300 Descending Cleveland Center
06:30PM 42.4956 -83.3542 111° Southeast 200 230 5,900 -360 Descending Cleveland Center
06:31PM 42.4744 -83.2828 112° Southeast 188 216 5,400 -480 Descending Cleveland Center
06:32PM 42.4333 -83.2503 150° Southeast 199 229 5,000 -720 Descending Cleveland Center
06:33PM 42.3811 -83.2592 187° South 191 220 4,000 -1,140 Descending Cleveland Center
06:34PM 42.3306 -83.2794 197° South 181 208 2,800 -1,020 Descending Cleveland Center
06:35PM 42.2883 -83.3086 207° Southwest 150 173 2,000 -780 Descending Cleveland Center
06:36PM 42.2564 -83.3325 209° Southwest 140 161 1,300 -780 Descending Cleveland Center